sensor_id;sensor_type;location;lat;lon;timestamp;P1;durP1;ratioP1;P2;durP2;ratioP2
19891;SDS011;10108;50.142;8.724;2022-12-18T00:02:00;68.63;;;26.10;;
19891;SDS011;10108;50.142;8.724;2022-12-18T00:04:26;71.07;;;26.58;;
19891;SDS011;10108;50.142;8.724;2022-12-18T00:06:53;56.10;;;22.02;;
19891;SDS011;10108;50.142;8.724;2022-12-18T00:09:19;58.88;;;22.67;;
19891;SDS011;10108;50.142;8.724;2022-12-18T00:11:46;52.80;;;19.67;;
19891;SDS011;10108;50.142;8.724;2022-12-18T00:14:12;38.08;;;16.90;;
19891;SDS011;10108;50.142;8.724;2022-12-18T00:16:39;39.20;;;16.33;;
19891;SDS011;10108;50.142;8.724;2022-12-18T00:19:05;43.75;;;17.60;;
19891;SDS011;10108;50.142;8.724;2022-12-18T00:21:33;46.25;;;18.08;;
19891;SDS011;10108;50.142;8.724;2022-12-18T00:23:59;42.15;;;17.35;;
19891;SDS011;10108;50.142;8.724;2022-12-18T00:26:27;37.97;;;16.67;;
19891;SDS011;10108;50.142;8.724;2022-12-18T00:28:59;38.95;;;16.48;;
19891;SDS011;10108;50.142;8.724;2022-12-18T00:31:26;40.97;;;17.30;;
19891;SDS011;10108;50.142;8.724;2022-12-18T00:33:56;40.83;;;16.83;;
19891;SDS011;10108;50.142;8.724;2022-12-18T00:36:25;40.03;;;16.15;;
19891;SDS011;10108;50.142;8.724;2022-12-18T00:38:54;37.50;;;16.67;;
19891;SDS011;10108;50.142;8.724;2022-12-18T00:41:21;39.08;;;16.30;;
19891;SDS011;10108;50.142;8.724;2022-12-18T00:44:07;35.80;;;14.75;;
19891;SDS011;10108;50.142;8.724;2022-12-18T00:46:35;37.10;;;16.42;;
19891;SDS011;10108;50.142;8.724;2022-12-18T00:49:01;32.95;;;15.18;;
19891;SDS011;10108;50.142;8.724;2022-12-18T00:51:27;36.58;;;15.77;;
19891;SDS011;10108;50.142;8.724;2022-12-18T00:53:54;38.00;;;15.82;;
19891;SDS011;10108;50.142;8.724;2022-12-18T00:56:20;37.25;;;16.17;;
19891;SDS011;10108;50.142;8.724;2022-12-18T00:58:48;37.13;;;15.13;;
19891;SDS011;10108;50.142;8.724;2022-12-18T01:01:14;34.15;;;15.32;;
19891;SDS011;10108;50.142;8.724;2022-12-18T01:03:40;38.60;;;16.50;;
19891;SDS011;10108;50.142;8.724;2022-12-18T01:06:07;34.63;;;15.10;;
19891;SDS011;10108;50.142;8.724;2022-12-18T01:08:35;36.38;;;16.25;;
19891;SDS011;10108;50.142;8.724;2022-12-18T01:11:06;37.95;;;15.60;;
19891;SDS011;10108;50.142;8.724;2022-12-18T01:13:37;34.97;;;16.58;;
19891;SDS011;10108;50.142;8.724;2022-12-18T01:16:04;35.85;;;15.38;;
19891;SDS011;10108;50.142;8.724;2022-12-18T01:18:34;30.92;;;15.10;;
19891;SDS011;10108;50.142;8.724;2022-12-18T01:21:00;36.10;;;15.80;;
19891;SDS011;10108;50.142;8.724;2022-12-18T01:23:30;39.20;;;16.70;;
19891;SDS011;10108;50.142;8.724;2022-12-18T01:25:57;37.00;;;15.35;;
19891;SDS011;10108;50.142;8.724;2022-12-18T01:28:23;38.72;;;15.77;;
19891;SDS011;10108;50.142;8.724;2022-12-18T01:30:49;33.97;;;15.25;;
19891;SDS011;10108;50.142;8.724;2022-12-18T01:33:15;33.20;;;15.32;;
19891;SDS011;10108;50.142;8.724;2022-12-18T01:35:41;34.67;;;15.45;;
19891;SDS011;10108;50.142;8.724;2022-12-18T01:38:08;35.83;;;15.88;;
19891;SDS011;10108;50.142;8.724;2022-12-18T01:40:35;38.10;;;15.88;;
19891;SDS011;10108;50.142;8.724;2022-12-18T01:43:02;35.70;;;15.60;;
19891;SDS011;10108;50.142;8.724;2022-12-18T01:45:29;32.17;;;14.73;;
19891;SDS011;10108;50.142;8.724;2022-12-18T01:48:05;35.75;;;15.23;;
19891;SDS011;10108;50.142;8.724;2022-12-18T01:50:35;34.20;;;15.63;;
19891;SDS011;10108;50.142;8.724;2022-12-18T01:53:09;36.35;;;15.38;;
19891;SDS011;10108;50.142;8.724;2022-12-18T01:55:43;36.35;;;15.85;;
19891;SDS011;10108;50.142;8.724;2022-12-18T01:58:13;41.45;;;15.95;;
19891;SDS011;10108;50.142;8.724;2022-12-18T02:00:39;39.22;;;16.40;;
19891;SDS011;10108;50.142;8.724;2022-12-18T02:03:05;37.58;;;15.73;;
19891;SDS011;10108;50.142;8.724;2022-12-18T02:05:49;38.78;;;15.30;;
19891;SDS011;10108;50.142;8.724;2022-12-18T02:11:18;32.47;;;14.73;;
19891;SDS011;10108;50.142;8.724;2022-12-18T02:19:47;32.10;;;15.75;;
19891;SDS011;10108;50.142;8.724;2022-12-18T02:22:38;32.97;;;14.90;;
19891;SDS011;10108;50.142;8.724;2022-12-18T02:27:48;39.05;;;16.80;;
19891;SDS011;10108;50.142;8.724;2022-12-18T02:30:16;38.22;;;16.80;;
19891;SDS011;10108;50.142;8.724;2022-12-18T02:32:45;38.85;;;16.63;;
19891;SDS011;10108;50.142;8.724;2022-12-18T02:35:16;36.65;;;16.50;;
19891;SDS011;10108;50.142;8.724;2022-12-18T02:37:56;37.45;;;17.20;;
19891;SDS011;10108;50.142;8.724;2022-12-18T02:40:24;36.83;;;15.85;;
19891;SDS011;10108;50.142;8.724;2022-12-18T02:42:53;36.47;;;16.00;;
19891;SDS011;10108;50.142;8.724;2022-12-18T02:45:20;40.40;;;17.25;;
19891;SDS011;10108;50.142;8.724;2022-12-18T02:47:48;40.28;;;17.40;;
19891;SDS011;10108;50.142;8.724;2022-12-18T02:50:32;40.97;;;17.05;;
19891;SDS011;10108;50.142;8.724;2022-12-18T02:53:10;40.67;;;16.85;;
19891;SDS011;10108;50.142;8.724;2022-12-18T03:03:44;43.20;;;17.48;;
19891;SDS011;10108;50.142;8.724;2022-12-18T03:06:28;39.33;;;16.60;;
19891;SDS011;10108;50.142;8.724;2022-12-18T03:09:00;34.53;;;16.25;;
19891;SDS011;10108;50.142;8.724;2022-12-18T03:11:30;39.95;;;16.58;;
19891;SDS011;10108;50.142;8.724;2022-12-18T03:14:18;39.33;;;17.20;;
19891;SDS011;10108;50.142;8.724;2022-12-18T03:16:48;32.90;;;16.33;;
19891;SDS011;10108;50.142;8.724;2022-12-18T03:19:19;37.05;;;15.85;;
19891;SDS011;10108;50.142;8.724;2022-12-18T03:21:51;37.67;;;15.23;;
19891;SDS011;10108;50.142;8.724;2022-12-18T03:24:23;36.40;;;15.38;;
19891;SDS011;10108;50.142;8.724;2022-12-18T03:26:56;38.55;;;16.25;;
19891;SDS011;10108;50.142;8.724;2022-12-18T03:29:27;39.78;;;17.20;;
19891;SDS011;10108;50.142;8.724;2022-12-18T03:32:02;32.70;;;16.05;;
19891;SDS011;10108;50.142;8.724;2022-12-18T03:34:34;34.03;;;15.10;;
19891;SDS011;10108;50.142;8.724;2022-12-18T03:37:06;35.75;;;16.13;;
19891;SDS011;10108;50.142;8.724;2022-12-18T03:39:34;34.17;;;15.63;;
19891;SDS011;10108;50.142;8.724;2022-12-18T03:42:07;35.25;;;15.50;;
19891;SDS011;10108;50.142;8.724;2022-12-18T03:44:55;37.13;;;16.10;;
19891;SDS011;10108;50.142;8.724;2022-12-18T03:47:30;33.80;;;16.05;;
19891;SDS011;10108;50.142;8.724;2022-12-18T03:52:44;38.55;;;16.13;;
19891;SDS011;10108;50.142;8.724;2022-12-18T03:55:16;36.28;;;16.52;;
19891;SDS011;10108;50.142;8.724;2022-12-18T03:57:47;36.65;;;16.15;;
19891;SDS011;10108;50.142;8.724;2022-12-18T04:00:16;41.28;;;16.10;;
19891;SDS011;10108;50.142;8.724;2022-12-18T04:03:01;37.92;;;16.15;;
19891;SDS011;10108;50.142;8.724;2022-12-18T04:05:36;38.28;;;15.90;;
19891;SDS011;10108;50.142;8.724;2022-12-18T04:08:05;35.35;;;15.90;;
19891;SDS011;10108;50.142;8.724;2022-12-18T04:10:35;35.63;;;14.95;;
19891;SDS011;10108;50.142;8.724;2022-12-18T04:13:02;36.38;;;14.68;;
19891;SDS011;10108;50.142;8.724;2022-12-18T04:15:28;36.50;;;15.68;;
19891;SDS011;10108;50.142;8.724;2022-12-18T04:17:56;36.92;;;16.08;;
19891;SDS011;10108;50.142;8.724;2022-12-18T04:20:25;33.25;;;14.48;;
19891;SDS011;10108;50.142;8.724;2022-12-18T04:22:52;33.80;;;14.45;;
19891;SDS011;10108;50.142;8.724;2022-12-18T04:25:19;31.52;;;14.60;;
19891;SDS011;10108;50.142;8.724;2022-12-18T04:28:03;33.05;;;15.25;;
19891;SDS011;10108;50.142;8.724;2022-12-18T04:30:29;30.88;;;14.23;;
19891;SDS011;10108;50.142;8.724;2022-12-18T04:32:55;34.28;;;15.50;;
19891;SDS011;10108;50.142;8.724;2022-12-18T04:35:22;31.30;;;14.93;;
19891;SDS011;10108;50.142;8.724;2022-12-18T04:37:48;36.72;;;15.88;;
19891;SDS011;10108;50.142;8.724;2022-12-18T04:40:15;33.20;;;14.93;;
19891;SDS011;10108;50.142;8.724;2022-12-18T04:42:44;35.85;;;15.63;;
19891;SDS011;10108;50.142;8.724;2022-12-18T04:45:10;34.78;;;15.57;;
19891;SDS011;10108;50.142;8.724;2022-12-18T04:47:37;36.10;;;15.85;;
19891;SDS011;10108;50.142;8.724;2022-12-18T04:50:03;36.60;;;15.57;;
19891;SDS011;10108;50.142;8.724;2022-12-18T04:52:29;33.13;;;16.20;;
19891;SDS011;10108;50.142;8.724;2022-12-18T04:54:57;36.05;;;16.73;;
19891;SDS011;10108;50.142;8.724;2022-12-18T04:57:23;34.88;;;15.60;;
19891;SDS011;10108;50.142;8.724;2022-12-18T04:59:49;35.67;;;15.55;;
19891;SDS011;10108;50.142;8.724;2022-12-18T05:02:15;34.97;;;16.08;;
19891;SDS011;10108;50.142;8.724;2022-12-18T05:04:41;38.90;;;16.73;;
19891;SDS011;10108;50.142;8.724;2022-12-18T05:07:07;34.30;;;15.38;;
19891;SDS011;10108;50.142;8.724;2022-12-18T05:09:33;36.28;;;16.63;;
19891;SDS011;10108;50.142;8.724;2022-12-18T05:11:59;39.67;;;16.33;;
19891;SDS011;10108;50.142;8.724;2022-12-18T05:14:25;36.65;;;17.88;;
19891;SDS011;10108;50.142;8.724;2022-12-18T05:16:53;37.33;;;16.38;;
19891;SDS011;10108;50.142;8.724;2022-12-18T05:19:19;39.30;;;16.73;;
19891;SDS011;10108;50.142;8.724;2022-12-18T05:21:45;38.63;;;17.88;;
19891;SDS011;10108;50.142;8.724;2022-12-18T05:24:11;38.83;;;16.83;;
19891;SDS011;10108;50.142;8.724;2022-12-18T05:26:37;36.58;;;16.33;;
19891;SDS011;10108;50.142;8.724;2022-12-18T05:29:03;37.08;;;16.08;;
19891;SDS011;10108;50.142;8.724;2022-12-18T05:31:29;33.33;;;16.15;;
19891;SDS011;10108;50.142;8.724;2022-12-18T05:33:55;39.28;;;16.65;;
19891;SDS011;10108;50.142;8.724;2022-12-18T05:36:21;41.08;;;16.45;;
19891;SDS011;10108;50.142;8.724;2022-12-18T05:38:48;36.72;;;16.73;;
19891;SDS011;10108;50.142;8.724;2022-12-18T05:41:14;37.15;;;15.98;;
19891;SDS011;10108;50.142;8.724;2022-12-18T05:43:41;33.50;;;16.00;;
19891;SDS011;10108;50.142;8.724;2022-12-18T05:46:08;38.92;;;16.15;;
19891;SDS011;10108;50.142;8.724;2022-12-18T05:48:38;34.38;;;15.65;;
19891;SDS011;10108;50.142;8.724;2022-12-18T05:51:05;39.00;;;15.20;;
19891;SDS011;10108;50.142;8.724;2022-12-18T05:53:33;34.67;;;15.88;;
19891;SDS011;10108;50.142;8.724;2022-12-18T05:56:00;32.97;;;14.60;;
19891;SDS011;10108;50.142;8.724;2022-12-18T05:58:28;36.45;;;16.00;;
19891;SDS011;10108;50.142;8.724;2022-12-18T06:00:54;37.63;;;15.82;;
19891;SDS011;10108;50.142;8.724;2022-12-18T06:03:20;35.25;;;15.35;;
19891;SDS011;10108;50.142;8.724;2022-12-18T06:05:46;35.65;;;15.93;;
19891;SDS011;10108;50.142;8.724;2022-12-18T06:08:12;33.45;;;14.75;;
19891;SDS011;10108;50.142;8.724;2022-12-18T06:10:39;32.80;;;14.80;;
19891;SDS011;10108;50.142;8.724;2022-12-18T06:13:06;33.53;;;14.95;;
19891;SDS011;10108;50.142;8.724;2022-12-18T06:15:35;33.92;;;15.88;;
19891;SDS011;10108;50.142;8.724;2022-12-18T06:18:02;33.13;;;14.52;;
19891;SDS011;10108;50.142;8.724;2022-12-18T06:20:30;30.15;;;15.40;;
19891;SDS011;10108;50.142;8.724;2022-12-18T06:22:56;32.60;;;14.88;;
19891;SDS011;10108;50.142;8.724;2022-12-18T06:25:22;30.80;;;14.20;;
19891;SDS011;10108;50.142;8.724;2022-12-18T06:27:48;34.95;;;15.43;;
19891;SDS011;10108;50.142;8.724;2022-12-18T06:30:14;33.00;;;15.32;;
19891;SDS011;10108;50.142;8.724;2022-12-18T06:32:41;34.08;;;14.80;;
19891;SDS011;10108;50.142;8.724;2022-12-18T06:35:07;39.13;;;17.65;;
19891;SDS011;10108;50.142;8.724;2022-12-18T06:37:33;39.55;;;19.38;;
19891;SDS011;10108;50.142;8.724;2022-12-18T06:39:59;33.60;;;16.95;;
19891;SDS011;10108;50.142;8.724;2022-12-18T06:42:26;36.22;;;15.73;;
19891;SDS011;10108;50.142;8.724;2022-12-18T06:44:53;33.15;;;14.38;;
19891;SDS011;10108;50.142;8.724;2022-12-18T06:47:19;36.03;;;16.02;;
19891;SDS011;10108;50.142;8.724;2022-12-18T06:49:46;31.45;;;15.23;;
19891;SDS011;10108;50.142;8.724;2022-12-18T06:52:12;32.25;;;15.73;;
19891;SDS011;10108;50.142;8.724;2022-12-18T06:54:38;35.90;;;15.65;;
19891;SDS011;10108;50.142;8.724;2022-12-18T06:57:04;31.20;;;14.98;;
19891;SDS011;10108;50.142;8.724;2022-12-18T06:59:30;38.90;;;16.08;;
19891;SDS011;10108;50.142;8.724;2022-12-18T07:01:56;37.75;;;16.67;;
19891;SDS011;10108;50.142;8.724;2022-12-18T07:04:26;35.75;;;15.85;;
19891;SDS011;10108;50.142;8.724;2022-12-18T07:06:55;37.33;;;15.23;;
19891;SDS011;10108;50.142;8.724;2022-12-18T07:09:23;40.28;;;16.38;;
19891;SDS011;10108;50.142;8.724;2022-12-18T07:11:49;34.97;;;15.85;;
19891;SDS011;10108;50.142;8.724;2022-12-18T07:14:15;37.67;;;16.25;;
19891;SDS011;10108;50.142;8.724;2022-12-18T07:16:41;36.90;;;15.48;;
19891;SDS011;10108;50.142;8.724;2022-12-18T07:19:08;31.17;;;15.73;;
19891;SDS011;10108;50.142;8.724;2022-12-18T07:21:34;32.75;;;14.75;;
19891;SDS011;10108;50.142;8.724;2022-12-18T07:24:00;35.72;;;16.58;;
19891;SDS011;10108;50.142;8.724;2022-12-18T07:26:26;36.53;;;16.10;;
19891;SDS011;10108;50.142;8.724;2022-12-18T07:28:54;31.88;;;15.70;;
19891;SDS011;10108;50.142;8.724;2022-12-18T07:31:23;34.40;;;15.48;;
19891;SDS011;10108;50.142;8.724;2022-12-18T07:33:50;38.25;;;15.35;;
19891;SDS011;10108;50.142;8.724;2022-12-18T07:36:17;36.67;;;16.70;;
19891;SDS011;10108;50.142;8.724;2022-12-18T07:38:46;32.72;;;16.02;;
19891;SDS011;10108;50.142;8.724;2022-12-18T07:41:12;31.35;;;16.10;;
19891;SDS011;10108;50.142;8.724;2022-12-18T07:43:39;34.63;;;15.35;;
19891;SDS011;10108;50.142;8.724;2022-12-18T07:46:07;33.13;;;15.60;;
19891;SDS011;10108;50.142;8.724;2022-12-18T07:48:34;34.55;;;15.43;;
19891;SDS011;10108;50.142;8.724;2022-12-18T07:51:01;34.17;;;14.60;;
19891;SDS011;10108;50.142;8.724;2022-12-18T07:53:29;34.13;;;15.45;;
19891;SDS011;10108;50.142;8.724;2022-12-18T07:55:57;33.75;;;15.13;;
19891;SDS011;10108;50.142;8.724;2022-12-18T07:58:24;35.25;;;15.82;;
19891;SDS011;10108;50.142;8.724;2022-12-18T08:00:50;29.98;;;14.18;;
19891;SDS011;10108;50.142;8.724;2022-12-18T08:03:18;35.60;;;15.20;;
19891;SDS011;10108;50.142;8.724;2022-12-18T08:05:44;30.42;;;14.93;;
19891;SDS011;10108;50.142;8.724;2022-12-18T08:08:10;37.63;;;15.35;;
19891;SDS011;10108;50.142;8.724;2022-12-18T08:10:37;35.67;;;14.68;;
19891;SDS011;10108;50.142;8.724;2022-12-18T08:13:04;35.13;;;15.23;;
19891;SDS011;10108;50.142;8.724;2022-12-18T08:15:30;33.83;;;14.35;;
19891;SDS011;10108;50.142;8.724;2022-12-18T08:17:56;30.52;;;14.82;;
19891;SDS011;10108;50.142;8.724;2022-12-18T08:20:22;32.25;;;14.02;;
19891;SDS011;10108;50.142;8.724;2022-12-18T08:22:48;35.85;;;14.93;;
19891;SDS011;10108;50.142;8.724;2022-12-18T08:25:15;33.20;;;14.63;;
19891;SDS011;10108;50.142;8.724;2022-12-18T08:27:41;36.35;;;15.18;;
19891;SDS011;10108;50.142;8.724;2022-12-18T08:30:07;35.13;;;15.23;;
19891;SDS011;10108;50.142;8.724;2022-12-18T08:32:34;32.17;;;14.77;;
19891;SDS011;10108;50.142;8.724;2022-12-18T08:35:00;33.97;;;14.73;;
19891;SDS011;10108;50.142;8.724;2022-12-18T08:37:26;32.85;;;15.35;;
19891;SDS011;10108;50.142;8.724;2022-12-18T08:39:52;31.42;;;15.57;;
19891;SDS011;10108;50.142;8.724;2022-12-18T08:42:18;34.95;;;14.73;;
19891;SDS011;10108;50.142;8.724;2022-12-18T08:45:03;37.75;;;15.73;;
19891;SDS011;10108;50.142;8.724;2022-12-18T08:47:29;34.45;;;15.52;;
19891;SDS011;10108;50.142;8.724;2022-12-18T08:49:55;34.78;;;16.42;;
19891;SDS011;10108;50.142;8.724;2022-12-18T08:52:22;37.42;;;15.93;;
19891;SDS011;10108;50.142;8.724;2022-12-18T08:54:48;36.10;;;17.90;;
19891;SDS011;10108;50.142;8.724;2022-12-18T08:57:14;45.83;;;18.95;;
19891;SDS011;10108;50.142;8.724;2022-12-18T08:59:40;45.22;;;19.80;;
19891;SDS011;10108;50.142;8.724;2022-12-18T09:02:07;47.78;;;20.25;;
19891;SDS011;10108;50.142;8.724;2022-12-18T09:04:35;46.97;;;20.02;;
19891;SDS011;10108;50.142;8.724;2022-12-18T09:07:01;43.38;;;18.52;;
19891;SDS011;10108;50.142;8.724;2022-12-18T09:09:28;40.38;;;18.20;;
19891;SDS011;10108;50.142;8.724;2022-12-18T09:11:54;42.15;;;17.83;;
19891;SDS011;10108;50.142;8.724;2022-12-18T09:14:20;37.15;;;17.38;;
19891;SDS011;10108;50.142;8.724;2022-12-18T09:16:46;36.42;;;17.25;;
19891;SDS011;10108;50.142;8.724;2022-12-18T09:19:12;36.10;;;16.67;;
19891;SDS011;10108;50.142;8.724;2022-12-18T09:21:38;40.47;;;17.00;;
19891;SDS011;10108;50.142;8.724;2022-12-18T09:24:05;40.25;;;18.25;;
19891;SDS011;10108;50.142;8.724;2022-12-18T09:26:31;39.40;;;18.67;;
19891;SDS011;10108;50.142;8.724;2022-12-18T09:28:57;44.33;;;18.60;;
19891;SDS011;10108;50.142;8.724;2022-12-18T09:31:23;36.75;;;18.25;;
19891;SDS011;10108;50.142;8.724;2022-12-18T09:33:50;42.92;;;19.23;;
19891;SDS011;10108;50.142;8.724;2022-12-18T09:36:17;40.35;;;19.10;;
19891;SDS011;10108;50.142;8.724;2022-12-18T09:38:44;41.78;;;20.30;;
19891;SDS011;10108;50.142;8.724;2022-12-18T09:44:23;41.60;;;18.42;;
19891;SDS011;10108;50.142;8.724;2022-12-18T09:46:55;40.17;;;19.65;;
19891;SDS011;10108;50.142;8.724;2022-12-18T09:49:43;45.13;;;19.70;;
19891;SDS011;10108;50.142;8.724;2022-12-18T09:52:24;40.03;;;19.77;;
19891;SDS011;10108;50.142;8.724;2022-12-18T09:54:56;43.97;;;19.40;;
19891;SDS011;10108;50.142;8.724;2022-12-18T09:57:28;42.63;;;20.55;;
19891;SDS011;10108;50.142;8.724;2022-12-18T10:00:06;43.65;;;20.27;;
19891;SDS011;10108;50.142;8.724;2022-12-18T10:02:46;45.78;;;21.00;;
19891;SDS011;10108;50.142;8.724;2022-12-18T10:05:14;48.45;;;20.73;;
19891;SDS011;10108;50.142;8.724;2022-12-18T10:10:27;44.80;;;20.35;;
19891;SDS011;10108;50.142;8.724;2022-12-18T10:18:38;48.10;;;21.17;;
19891;SDS011;10108;50.142;8.724;2022-12-18T10:21:15;44.78;;;21.02;;
19891;SDS011;10108;50.142;8.724;2022-12-18T10:26:33;44.70;;;21.88;;
19891;SDS011;10108;50.142;8.724;2022-12-18T10:29:00;46.15;;;21.38;;
19891;SDS011;10108;50.142;8.724;2022-12-18T10:31:26;48.10;;;22.60;;
19891;SDS011;10108;50.142;8.724;2022-12-18T10:33:53;51.55;;;23.00;;
19891;SDS011;10108;50.142;8.724;2022-12-18T10:36:20;48.05;;;22.02;;
19891;SDS011;10108;50.142;8.724;2022-12-18T10:38:46;48.35;;;23.10;;
19891;SDS011;10108;50.142;8.724;2022-12-18T10:43:44;52.28;;;23.70;;
19891;SDS011;10108;50.142;8.724;2022-12-18T10:48:40;52.53;;;22.10;;
19891;SDS011;10108;50.142;8.724;2022-12-18T10:53:59;48.85;;;22.10;;
19891;SDS011;10108;50.142;8.724;2022-12-18T10:56:31;48.67;;;21.73;;
19891;SDS011;10108;50.142;8.724;2022-12-18T10:59:01;51.42;;;23.35;;
19891;SDS011;10108;50.142;8.724;2022-12-18T11:04:50;54.90;;;22.73;;
19891;SDS011;10108;50.142;8.724;2022-12-18T11:07:17;50.83;;;22.35;;
19891;SDS011;10108;50.142;8.724;2022-12-18T11:09:43;50.10;;;21.52;;
19891;SDS011;10108;50.142;8.724;2022-12-18T11:12:24;46.17;;;21.77;;
19891;SDS011;10108;50.142;8.724;2022-12-18T11:14:52;53.88;;;22.77;;
19891;SDS011;10108;50.142;8.724;2022-12-18T11:17:32;53.30;;;22.98;;
19891;SDS011;10108;50.142;8.724;2022-12-18T11:20:02;52.33;;;22.52;;
19891;SDS011;10108;50.142;8.724;2022-12-18T11:22:33;53.50;;;22.85;;
19891;SDS011;10108;50.142;8.724;2022-12-18T11:27:37;52.28;;;22.30;;
19891;SDS011;10108;50.142;8.724;2022-12-18T11:38:20;56.13;;;23.77;;
19891;SDS011;10108;50.142;8.724;2022-12-18T11:40:53;54.60;;;22.38;;
19891;SDS011;10108;50.142;8.724;2022-12-18T11:43:32;48.28;;;22.65;;
19891;SDS011;10108;50.142;8.724;2022-12-18T11:46:11;53.95;;;23.45;;
19891;SDS011;10108;50.142;8.724;2022-12-18T11:48:44;61.90;;;23.85;;
19891;SDS011;10108;50.142;8.724;2022-12-18T11:51:22;51.50;;;22.83;;
19891;SDS011;10108;50.142;8.724;2022-12-18T11:53:55;51.85;;;21.83;;
19891;SDS011;10108;50.142;8.724;2022-12-18T11:56:44;48.40;;;21.60;;
19891;SDS011;10108;50.142;8.724;2022-12-18T11:59:33;53.08;;;21.88;;
19891;SDS011;10108;50.142;8.724;2022-12-18T12:07:59;50.78;;;20.73;;
19891;SDS011;10108;50.142;8.724;2022-12-18T12:10:41;49.47;;;21.20;;
19891;SDS011;10108;50.142;8.724;2022-12-18T12:13:14;51.72;;;22.08;;
19891;SDS011;10108;50.142;8.724;2022-12-18T12:21:34;61.95;;;22.63;;
19891;SDS011;10108;50.142;8.724;2022-12-18T12:24:15;53.13;;;21.10;;
19891;SDS011;10108;50.142;8.724;2022-12-18T12:27:12;55.10;;;22.42;;
19891;SDS011;10108;50.142;8.724;2022-12-18T12:32:44;55.35;;;22.85;;
19891;SDS011;10108;50.142;8.724;2022-12-18T12:38:17;53.53;;;22.35;;
19891;SDS011;10108;50.142;8.724;2022-12-18T12:40:48;47.80;;;20.65;;
19891;SDS011;10108;50.142;8.724;2022-12-18T12:43:27;55.85;;;21.50;;
19891;SDS011;10108;50.142;8.724;2022-12-18T12:45:59;56.85;;;22.65;;
19891;SDS011;10108;50.142;8.724;2022-12-18T12:48:39;51.63;;;23.02;;
19891;SDS011;10108;50.142;8.724;2022-12-18T12:51:28;54.45;;;21.33;;
19891;SDS011;10108;50.142;8.724;2022-12-18T12:53:57;61.33;;;23.73;;
19891;SDS011;10108;50.142;8.724;2022-12-18T12:56:34;54.78;;;22.50;;
19891;SDS011;10108;50.142;8.724;2022-12-18T13:02:05;49.83;;;21.58;;
19891;SDS011;10108;50.142;8.724;2022-12-18T13:04:56;52.70;;;21.42;;
19891;SDS011;10108;50.142;8.724;2022-12-18T13:07:29;54.88;;;22.67;;
19891;SDS011;10108;50.142;8.724;2022-12-18T13:12:57;52.10;;;21.45;;
19891;SDS011;10108;50.142;8.724;2022-12-18T13:18:03;49.83;;;21.15;;
19891;SDS011;10108;50.142;8.724;2022-12-18T13:26:00;58.95;;;24.50;;
19891;SDS011;10108;50.142;8.724;2022-12-18T13:31:12;55.20;;;22.85;;
19891;SDS011;10108;50.142;8.724;2022-12-18T13:33:39;51.13;;;21.25;;
19891;SDS011;10108;50.142;8.724;2022-12-18T13:39:20;47.78;;;21.52;;
19891;SDS011;10108;50.142;8.724;2022-12-18T13:41:40;57.20;;;22.15;;
19891;SDS011;10108;50.142;8.724;2022-12-18T13:44:31;61.83;;;24.60;;
19891;SDS011;10108;50.142;8.724;2022-12-18T13:46:57;52.72;;;22.58;;
19891;SDS011;10108;50.142;8.724;2022-12-18T13:49:36;55.95;;;22.48;;
19891;SDS011;10108;50.142;8.724;2022-12-18T13:52:18;50.20;;;20.77;;
19891;SDS011;10108;50.142;8.724;2022-12-18T13:54:49;55.17;;;21.52;;
19891;SDS011;10108;50.142;8.724;2022-12-18T13:57:31;48.92;;;20.50;;
19891;SDS011;10108;50.142;8.724;2022-12-18T14:00:16;74.13;;;31.65;;
19891;SDS011;10108;50.142;8.724;2022-12-18T14:02:51;54.83;;;23.08;;
19891;SDS011;10108;50.142;8.724;2022-12-18T14:05:31;53.92;;;22.75;;
19891;SDS011;10108;50.142;8.724;2022-12-18T14:08:00;50.80;;;21.02;;
19891;SDS011;10108;50.142;8.724;2022-12-18T14:10:30;50.92;;;21.25;;
19891;SDS011;10108;50.142;8.724;2022-12-18T14:12:56;49.75;;;21.17;;
19891;SDS011;10108;50.142;8.724;2022-12-18T14:15:35;51.33;;;21.75;;
19891;SDS011;10108;50.142;8.724;2022-12-18T14:20:51;52.67;;;20.58;;
19891;SDS011;10108;50.142;8.724;2022-12-18T14:23:31;48.60;;;21.13;;
19891;SDS011;10108;50.142;8.724;2022-12-18T14:26:01;51.90;;;20.67;;
19891;SDS011;10108;50.142;8.724;2022-12-18T14:28:28;50.90;;;21.65;;
19891;SDS011;10108;50.142;8.724;2022-12-18T14:30:55;46.08;;;20.23;;
19891;SDS011;10108;50.142;8.724;2022-12-18T14:33:23;49.05;;;22.05;;
19891;SDS011;10108;50.142;8.724;2022-12-18T14:36:00;49.03;;;21.60;;
19891;SDS011;10108;50.142;8.724;2022-12-18T14:41:02;45.75;;;20.70;;
19891;SDS011;10108;50.142;8.724;2022-12-18T14:43:39;51.70;;;21.67;;
19891;SDS011;10108;50.142;8.724;2022-12-18T14:48:56;48.50;;;21.05;;
19891;SDS011;10108;50.142;8.724;2022-12-18T14:51:26;44.05;;;20.23;;
19891;SDS011;10108;50.142;8.724;2022-12-18T14:53:54;53.88;;;21.33;;
19891;SDS011;10108;50.142;8.724;2022-12-18T14:56:30;50.67;;;22.10;;
19891;SDS011;10108;50.142;8.724;2022-12-18T14:59:19;52.38;;;21.13;;
19891;SDS011;10108;50.142;8.724;2022-12-18T15:01:59;47.88;;;20.67;;
19891;SDS011;10108;50.142;8.724;2022-12-18T15:04:35;44.85;;;20.33;;
19891;SDS011;10108;50.142;8.724;2022-12-18T15:09:36;47.08;;;21.45;;
19891;SDS011;10108;50.142;8.724;2022-12-18T15:12:03;48.35;;;20.42;;
19891;SDS011;10108;50.142;8.724;2022-12-18T15:16:56;49.50;;;22.27;;
19891;SDS011;10108;50.142;8.724;2022-12-18T15:19:31;50.17;;;23.00;;
19891;SDS011;10108;50.142;8.724;2022-12-18T15:22:01;45.95;;;21.13;;
19891;SDS011;10108;50.142;8.724;2022-12-18T15:24:29;54.38;;;22.88;;
19891;SDS011;10108;50.142;8.724;2022-12-18T15:26:57;50.90;;;23.63;;
19891;SDS011;10108;50.142;8.724;2022-12-18T15:29:24;53.63;;;23.17;;
19891;SDS011;10108;50.142;8.724;2022-12-18T15:32:01;53.47;;;24.42;;
19891;SDS011;10108;50.142;8.724;2022-12-18T15:34:29;48.83;;;23.05;;
19891;SDS011;10108;50.142;8.724;2022-12-18T15:36:56;54.67;;;22.10;;
19891;SDS011;10108;50.142;8.724;2022-12-18T15:39:22;55.08;;;24.70;;
19891;SDS011;10108;50.142;8.724;2022-12-18T15:41:49;56.63;;;23.65;;
19891;SDS011;10108;50.142;8.724;2022-12-18T15:44:34;55.83;;;23.00;;
19891;SDS011;10108;50.142;8.724;2022-12-18T15:47:00;56.80;;;23.00;;
19891;SDS011;10108;50.142;8.724;2022-12-18T15:49:26;55.65;;;23.77;;
19891;SDS011;10108;50.142;8.724;2022-12-18T15:51:53;48.58;;;21.88;;
19891;SDS011;10108;50.142;8.724;2022-12-18T15:54:22;53.30;;;22.67;;
19891;SDS011;10108;50.142;8.724;2022-12-18T15:57:12;57.70;;;24.50;;
19891;SDS011;10108;50.142;8.724;2022-12-18T15:59:51;54.33;;;23.05;;
19891;SDS011;10108;50.142;8.724;2022-12-18T16:02:18;56.63;;;22.02;;
19891;SDS011;10108;50.142;8.724;2022-12-18T16:04:46;53.67;;;21.65;;
19891;SDS011;10108;50.142;8.724;2022-12-18T16:07:12;45.75;;;20.13;;
19891;SDS011;10108;50.142;8.724;2022-12-18T16:09:38;53.08;;;20.85;;
19891;SDS011;10108;50.142;8.724;2022-12-18T16:12:17;47.72;;;21.33;;
19891;SDS011;10108;50.142;8.724;2022-12-18T16:14:46;49.08;;;21.20;;
19891;SDS011;10108;50.142;8.724;2022-12-18T16:17:13;44.45;;;20.40;;
19891;SDS011;10108;50.142;8.724;2022-12-18T16:19:39;46.05;;;20.40;;
19891;SDS011;10108;50.142;8.724;2022-12-18T16:22:15;49.47;;;20.42;;
19891;SDS011;10108;50.142;8.724;2022-12-18T16:24:46;45.55;;;20.77;;
19891;SDS011;10108;50.142;8.724;2022-12-18T16:27:12;50.78;;;20.48;;